LEBBGCLA

Guest
Details From LEBB - Bilbao
To GCLA - La Palma
Flight Number -
Tags Generated
Created
Modified
Stats Distance 1,137 nm / 2,106 km
Max Altitude 0 ft / 0 m
Waypoints 5
Social Downloads 1
Likes 0
Share VATSIM

Download

Looking for another format? Having issues loading an existing format? Contact us
Advertisement - Login to hide

Notes

Generated

Route

LEBB BARDI NAKOS BX GCLA

ID Type Via Altitude Latitude Longitude Leg Dist Tot Dist Heading (true) Name
O LEBB APT - 0 ft / 0 m 43.30335˚ -2.93703˚ - 0 nm - -
BARDI FIX - 0 ft / 0 m 40.58349˚ -6.30246˚ 221 nm 221 nm 224° / 222° -
NAKOS FIX - 0 ft / 0 m 38.00000˚ -9.33444˚ 209 nm 431 nm 223° / 221° -
BX NDB - 0 ft / 0 m 28.60169˚ -17.75684˚ 704 nm 1136 nm 219° / 215° LA PALMA NDB
O GCLA APT - 0 ft / 0 m 28.61659˚ -17.75542˚ 0 nm 1136 nm 5° / 5° -

Altitude Profile

Advertisement - Login to hide

Weather


0- 5 10 15 20 25 30 35+ Temperature / ° C

Clouds and Precipitation
Forecast for 2018-05-21 18:00 UTC. Updated 2 hours ago

Ground ~20,000 ft ~40,000 ft Winds

LEBB

Details ICAO LEBB (BIO)
Name Bilbao
Region Spain
Timezone Europe/Madrid (UTC+2.0)
Stats Elevation 137 ft / 42 m (AMSL)
Location 43.301692° -2.917664°
Runways 2
Magnetic Variation 0.575° W

METAR

LEBB 211700Z 31009KT 260V330 9999 FEW035 FEW040CB SCT065 20/14 Q1011 NOSIG

Decode

TAF

TAF LEBB 211100Z 2112/2212 33009KT 9999 FEW035 TX25/2114Z TN12/2206Z TEMPO 2112/2121 SHRA SCT030TCU PROB40 TEMPO 2112/2121 VRB15G30KT 3000 TS SCT030CB PROB40 TEMPO 2121/2208 3000 BR BKN010 PROB40 TEMPO 2200/2208 0800 BCFG BKN002

Decode

Departure Runways

ID Width Length Bearing (true) Bearing (mag) Surface Threshold Offset Overrun Length
10 148 ft / 45 m 6,569 ft / 2,002 m 96.66° 97.23° Asphalt 20 ft / 6 m 184 ft / 56 m
12 148 ft / 45 m 8,539 ft / 2,603 m 116.73° 117.30° Asphalt 20 ft / 6 m 197 ft / 60 m
28 148 ft / 45 m 6,569 ft / 2,002 m 276.68° 277.25° Asphalt 23 ft / 7 m 0 ft / 0 m
30 148 ft / 45 m 8,539 ft / 2,603 m 296.75° 297.32° Asphalt 1,509 ft / 460 m 171 ft / 52 m

GCLA

Details ICAO GCLA (SPC)
Name La Palma
Region Canary Islands
Timezone Atlantic/Canary (UTC+1.0)
Stats Elevation 107 ft / 33 m (AMSL)
Location 28.626480° -17.755613°
Runways 1
Magnetic Variation 5.471° W

METAR

GCLA 211700Z 06005KT 350V110 9999 BKN034 21/15 Q1017

Decode

TAF

TAF GCLA 211400Z 2115/2215 04009KT 9999 SCT025 TX21/2214Z TN17/2205Z PROB30 2209/2215 DZRA

Decode

Destination Runways

ID Width Length Bearing (true) Bearing (mag) Surface Threshold Offset Overrun Length
01 148 ft / 45 m 7,240 ft / 2,207 m 359.02° 4.49° Asphalt 0 ft / 0 m 279 ft / 85 m
19 148 ft / 45 m 7,240 ft / 2,207 m 179.02° 184.49° Asphalt 0 ft / 0 m 236 ft / 72 m

Popular Alternatives